Savage Insight — WDF9252 — position and weather

sailwx.info

Track history (hours):
 
Tides and Currents Weather Stations Pressure Air Temp Water Temp Dewpoint Dewpoint Depression Visibility Wind Speed Wind Dir Waves Ship Positions

Savage Insight

Owner: Savage Inland Marine, Gibson, LA. More information available from US FCC via Universal Licensing System and Coast Guard Vessel Documentation Center.

Last reported at 2018-May-25 11:31 UTC. Time now 2018-Jun-22 08:55 UTC.
Position N 32°39' W 091°09'.
Warning: this ship's position is 27 days out of date.

Length 32 m; draft 10 m.

Type: Towing. MMSI: 367503240.

Date/timePositionNaut miles runAvg speedWind from/ knotsBaromVisibWave heightAir tempDewpointWater temp
2018-May-25 11:31N 32°39' W 091°09'2 5.6
2018-May-25 11:12N 32°38' W 091°09'1 5.3
2018-May-25 11:00N 32°37' W 091°09'2 4.7
2018-May-25 10:30N 32°35' W 091°07'1 1.3
2018-May-25 10:00N 32°34' W 091°06'1 1.5
2018-May-25 09:31N 32°34' W 091°06'3 4.4
2018-May-25 08:46N 32°30' W 091°07'1 4.9
2018-May-25 08:30N 32°29' W 091°07'3 5.2
2018-May-25 08:00N 32°27' W 091°05'3 5.2
2018-May-25 07:30N 32°26' W 091°02'2 4.8
2018-May-25 07:01N 32°25' W 090°60'2 4.5
2018-May-25 06:31N 32°23' W 091°00'2 3.9
2018-May-25 06:00N 32°21' W 090°59'2 5.0
2018-May-25 05:31N 32°21' W 090°56'2 4.1
2018-May-25 05:00N 32°19' W 090°54'3 5.3
2018-May-25 04:30N 32°17' W 090°56'3 5.7
2018-May-25 04:00N 32°15' W 090°59'2 4.5
2018-May-25 03:31N 32°13' W 090°59'2 4.5
2018-May-25 02:59N 32°11' W 090°60'2 4.5
2018-May-25 02:30N 32°09' W 091°00'2 4.0
2018-May-25 01:58N 32°07' W 091°02'2 3.6
2018-May-25 01:30N 32°08' W 091°04'2 4.0
2018-May-25 01:01N 32°07' W 091°06'  
2018-May-17 07:08N 29°59' W 090°24'0 0.0
2018-May-17 07:00N 29°59' W 090°24'  
Track history (hours):
 
Tides and Currents Weather Stations Pressure Air Temp Water Temp Dewpoint Dewpoint Depression Visibility Wind Speed Wind Dir Waves Ship Positions

Savage Insight

Owner: Savage Inland Marine, Gibson, LA. More information available from US FCC via Universal Licensing System and Coast Guard Vessel Documentation Center.

Last reported at 2018-May-25 11:31 UTC. Time now 2018-Jun-22 08:55 UTC.
Position N 32°39' W 091°09'.
Warning: this ship's position is 27 days out of date.

Length 32 m; draft 10 m.

Type: Towing. MMSI: 367503240.

Date/timePositionNaut miles runAvg speedWind from/ knotsBaromVisibWave heightAir tempDewpointWater temp
2018-May-25 11:31N 32°39' W 091°09'2 5.6
2018-May-25 11:12N 32°38' W 091°09'1 5.3
2018-May-25 11:00N 32°37' W 091°09'2 4.7
2018-May-25 10:30N 32°35' W 091°07'1 1.3
2018-May-25 10:00N 32°34' W 091°06'1 1.5
2018-May-25 09:31N 32°34' W 091°06'3 4.4
2018-May-25 08:46N 32°30' W 091°07'1 4.9
2018-May-25 08:30N 32°29' W 091°07'3 5.2
2018-May-25 08:00N 32°27' W 091°05'3 5.2
2018-May-25 07:30N 32°26' W 091°02'2 4.8
2018-May-25 07:01N 32°25' W 090°60'2 4.5
2018-May-25 06:31N 32°23' W 091°00'2 3.9
2018-May-25 06:00N 32°21' W 090°59'2 5.0
2018-May-25 05:31N 32°21' W 090°56'2 4.1
2018-May-25 05:00N 32°19' W 090°54'3 5.3
2018-May-25 04:30N 32°17' W 090°56'3 5.7
2018-May-25 04:00N 32°15' W 090°59'2 4.5
2018-May-25 03:31N 32°13' W 090°59'2 4.5
2018-May-25 02:59N 32°11' W 090°60'2 4.5
2018-May-25 02:30N 32°09' W 091°00'2 4.0
2018-May-25 01:58N 32°07' W 091°02'2 3.6
2018-May-25 01:30N 32°08' W 091°04'2 4.0
2018-May-25 01:01N 32°07' W 091°06'  
2018-May-17 07:08N 29°59' W 090°24'0 0.0
2018-May-17 07:00N 29°59' W 090°24'  

Dump ship's entire track history